RIPO2: Cimarron River Near Ripley, OK

Data processed at Fri Mar 09 2018 23:02


All information presented herein is the property of the government of the United States of America and may be revised or deleted at any time without prior notice.
Dissemination of this information without the expressed written consent of the Public Affairs Office, Tulsa District U.S. Army Corps of Engineers is strictly prohibited.
These data are gathered electronically and, as presented, have not undergone any form of quality control. These data are not guaranteed to be valid or correct.
Go to home page.
Go to station list.

Upstream stations:

Downstream station:
Previous Day
Next Day
Current Day
    
SHEF ID:       RIPO2     Cimarron River near Ripley, OK
STATION TYPE:  

               PRECIP     STAGE  RIV-FLOW  BAT-LOAD
                   in        ft       cfs      volt
              Ccp-Rev   Ccp-Rev   Ccp-Rev   Ccp-Rev
(US/Central)
03/07 00:00      0.00      8.27       292     12.57
03/07 01:00      0.00      8.26       288     12.57
03/07 02:00      0.00      8.26       288     12.57
03/07 03:00      0.00      8.27       292     12.49
03/07 04:00      0.00      8.27       292     12.49
03/07 05:00      0.00      8.27       292     12.41
03/07 06:00      0.00      8.27       292     12.41
03/07 07:00      0.00      8.27       292     12.41
03/07 08:00      0.00      8.27       292     12.41
03/07 09:00      0.00      8.18       256     13.21
03/07 10:00      0.00      8.20       264     13.84
03/07 11:00      0.00      8.25       283     13.92
03/07 12:00      0.00      8.25       283     13.84
03/07 13:00      0.00      8.24       279     13.76
03/07 14:00      0.00      8.20       264     13.84
03/07 15:00      0.00      8.25       283     14.16
03/07 16:00      0.00      8.23       275     14.00
03/07 17:00      0.00      8.18       256     13.76
03/07 18:00      0.00      8.22       272     13.68
03/07 19:00      0.00      8.22       272     13.60
03/07 20:00      0.00      8.22       272     13.05
03/07 21:00      0.00      8.22       272     12.73
03/07 22:00      0.00      8.22       272     12.57
03/07 23:00      0.00      8.22       272     12.57